createdAt,value
2023-11-30T00:01:36.637Z,100057.41
2023-11-30T00:04:04.784Z,100063.18
2023-11-30T00:06:39.131Z,100062.52
2023-11-30T00:09:07.651Z,100063.52
2023-11-30T00:11:35.720Z,100062.17
2023-11-30T00:14:03.810Z,100064.02
2023-11-30T00:16:31.999Z,100067.16
2023-11-30T00:19:00.056Z,100072.21
2023-11-30T00:21:28.122Z,100068.75
2023-11-30T00:23:56.169Z,100069.42
2023-11-30T00:39:30.712Z,100054.61
2023-11-30T00:41:59.033Z,100038.23
2023-11-30T00:44:27.139Z,100044.91
2023-11-30T00:46:55.270Z,100050.98
2023-11-30T00:49:23.515Z,100064.84
2023-11-30T00:51:51.619Z,100070.55
2023-11-30T00:54:19.842Z,100076.38
2023-11-30T00:56:48.197Z,100076.46
2023-11-30T00:59:16.303Z,100073.80
2023-11-30T01:01:44.580Z,100074.21
2023-11-30T01:04:13.329Z,100081.09
2023-11-30T01:06:41.353Z,100090.34
2023-11-30T01:09:09.565Z,100097.08
2023-11-30T01:11:43.828Z,100110.25
2023-11-30T01:14:11.953Z,100120.64
2023-11-30T01:16:40.751Z,100127.27
2023-11-30T01:19:09.277Z,100125.59
2023-11-30T01:21:37.409Z,100125.23
2023-11-30T01:24:05.983Z,100117.31
2023-11-30T01:26:34.003Z,100118.85
2023-11-30T01:29:02.284Z,100121.11
2023-11-30T01:31:30.411Z,100122.02
2023-11-30T01:33:58.584Z,100130.59
2023-11-30T01:36:26.677Z,100139.59
2023-11-30T01:38:54.944Z,100139.29
2023-11-30T01:41:23.032Z,100132.65
2023-11-30T01:43:51.087Z,100134.21
2023-11-30T01:46:19.273Z,100126.50
2023-11-30T01:48:47.920Z,100121.06
2023-11-30T01:51:16.136Z,100126.77
2023-11-30T01:53:44.650Z,100126.17
2023-11-30T01:56:12.785Z,100132.36
2023-11-30T01:58:40.828Z,100143.64
2023-11-30T02:01:09.107Z,100151.13
2023-11-30T02:03:37.864Z,100161.09
2023-11-30T02:06:06.330Z,100165.44
2023-11-30T02:08:34.477Z,100172.89
2023-11-30T02:11:02.495Z,100169.96
2023-11-30T02:13:30.510Z,100171.05
2023-11-30T02:15:58.795Z,100172.94
2023-11-30T02:18:26.971Z,100174.33
2023-11-30T02:20:57.506Z,100170.49
2023-11-30T02:23:25.579Z,100166.24
2023-11-30T02:25:53.882Z,100166.45
2023-11-30T02:28:21.922Z,100171.83
2023-11-30T02:30:51.186Z,100182.70
2023-11-30T02:33:19.485Z,100190.30
2023-11-30T02:35:47.960Z,100188.28
2023-11-30T02:38:16.004Z,100202.86
2023-11-30T02:40:44.169Z,100205.00
2023-11-30T02:43:12.759Z,100204.80
2023-11-30T02:45:40.867Z,100185.43
2023-11-30T02:48:09.165Z,100186.80
2023-11-30T02:50:38.677Z,100199.23
2023-11-30T02:53:06.730Z,100212.75
2023-11-30T02:55:34.839Z,100217.77
2023-11-30T02:58:02.914Z,100222.65
2023-11-30T03:00:31.084Z,100231.60
2023-11-30T03:02:59.294Z,100237.52
2023-11-30T03:05:27.383Z,100237.00
2023-11-30T03:07:55.596Z,100243.17
2023-11-30T03:10:24.574Z,100250.18
2023-11-30T03:12:53.567Z,100256.56
2023-11-30T03:15:23.562Z,100263.23
2023-11-30T03:17:51.818Z,100264.98
2023-11-30T03:20:20.317Z,100272.60
2023-11-30T03:22:48.469Z,100280.10
2023-11-30T03:25:17.328Z,100278.33
2023-11-30T03:27:45.501Z,100283.52
2023-11-30T03:30:13.765Z,100289.70
2023-11-30T03:32:41.939Z,100280.39
2023-11-30T03:35:10.225Z,100285.02
2023-11-30T03:37:41.826Z,100287.66
2023-11-30T03:40:12.298Z,100291.83
2023-11-30T03:42:40.461Z,100290.99
2023-11-30T03:45:09.506Z,100291.45
2023-11-30T03:47:37.624Z,100293.37
2023-11-30T03:50:06.165Z,100298.01
2023-11-30T03:52:34.413Z,100295.38
2023-11-30T03:55:02.509Z,100296.65
2023-11-30T03:57:30.630Z,100302.13
2023-11-30T03:59:59.053Z,100304.13
2023-11-30T04:02:27.452Z,100311.11
2023-11-30T04:04:56.196Z,100317.09
2023-11-30T04:07:31.129Z,100319.84
2023-11-30T04:10:00.166Z,100327.27
2023-11-30T04:12:28.542Z,100326.89
2023-11-30T04:14:56.665Z,100327.30
2023-11-30T04:17:24.871Z,100326.67
2023-11-30T04:19:52.915Z,100331.35
2023-11-30T04:22:20.994Z,100335.28
2023-11-30T04:24:49.151Z,100329.26
2023-11-30T04:27:17.147Z,100328.56
2023-11-30T04:29:45.425Z,100328.77
2023-11-30T04:32:13.652Z,100328.19
2023-11-30T04:34:42.176Z,100331.18
2023-11-30T04:37:10.440Z,100332.59
2023-11-30T04:39:39.229Z,100336.20
2023-11-30T04:42:07.670Z,100339.31
2023-11-30T04:44:35.811Z,100343.81
2023-11-30T04:47:04.242Z,100353.21
2023-11-30T04:49:32.630Z,100358.10
2023-11-30T04:52:00.690Z,100361.23
2023-11-30T04:54:28.813Z,100362.11
2023-11-30T04:56:57.041Z,100360.10
2023-11-30T04:59:25.186Z,100362.30
2023-11-30T05:01:53.362Z,100366.74
2023-11-30T05:04:21.709Z,100369.71
2023-11-30T05:06:50.093Z,100369.30
2023-11-30T05:09:18.441Z,100369.84
2023-11-30T05:11:46.636Z,100371.10
2023-11-30T05:14:14.649Z,100375.73
2023-11-30T05:16:42.755Z,100373.47
2023-11-30T05:19:11.161Z,100381.36
2023-11-30T05:21:39.268Z,100387.99
2023-11-30T05:24:07.430Z,100393.70
2023-11-30T05:26:35.639Z,100397.86
2023-11-30T05:29:04.237Z,100400.00
2023-11-30T05:31:32.422Z,100401.15
2023-11-30T05:34:00.752Z,100405.36
2023-11-30T05:36:28.853Z,100406.67
2023-11-30T05:38:57.022Z,100414.36
2023-11-30T05:41:25.163Z,100414.66
2023-11-30T05:43:53.261Z,100419.24
2023-11-30T05:46:21.474Z,100412.15
2023-11-30T05:48:52.728Z,100402.88
2023-11-30T05:51:21.107Z,100400.98
2023-11-30T05:53:49.290Z,100396.48
2023-11-30T05:56:17.505Z,100385.30
2023-11-30T05:58:45.600Z,100382.20
2023-11-30T06:01:13.914Z,100378.40
2023-11-30T06:03:42.361Z,100374.90
2023-11-30T06:06:11.440Z,100373.83
2023-11-30T06:08:39.754Z,100374.08
2023-11-30T06:11:08.279Z,100376.16
2023-11-30T06:13:36.572Z,100374.16
2023-11-30T06:16:05.225Z,100373.64
2023-11-30T06:18:33.425Z,100376.13
2023-11-30T06:21:02.135Z,100377.80
2023-11-30T06:23:30.302Z,100379.02
2023-11-30T06:25:58.469Z,100381.91
2023-11-30T06:28:29.651Z,100385.12
2023-11-30T06:30:57.703Z,100386.98
2023-11-30T06:33:25.947Z,100397.42
2023-11-30T06:35:54.018Z,100403.83
2023-11-30T06:38:22.154Z,100404.02
2023-11-30T06:40:50.398Z,100404.14
2023-11-30T06:43:18.639Z,100407.20
2023-11-30T06:45:46.951Z,100412.77
2023-11-30T06:48:15.108Z,100414.09
2023-11-30T06:50:43.201Z,100420.96
2023-11-30T06:53:11.239Z,100428.21
2023-11-30T06:55:39.421Z,100436.03
2023-11-30T06:58:07.714Z,100444.80
2023-11-30T07:00:36.619Z,100450.80
2023-11-30T07:03:04.867Z,100471.46
2023-11-30T07:05:33.054Z,100482.20
2023-11-30T07:08:01.523Z,100495.18
2023-11-30T07:10:30.856Z,100501.36
2023-11-30T07:12:59.241Z,100506.76
2023-11-30T07:15:27.308Z,100516.52
2023-11-30T07:17:55.678Z,100520.63
2023-11-30T07:20:23.844Z,100531.92
2023-11-30T07:22:51.931Z,100534.00
2023-11-30T07:25:20.245Z,100540.30
2023-11-30T07:27:48.790Z,100547.77
2023-11-30T07:30:17.195Z,100554.30
2023-11-30T07:32:45.373Z,100559.77
2023-11-30T07:35:13.592Z,100564.52
2023-11-30T07:37:43.765Z,100566.79
2023-11-30T07:40:12.098Z,100570.71
2023-11-30T07:42:40.389Z,100575.46
2023-11-30T07:45:10.845Z,100576.30
2023-11-30T07:47:39.100Z,100583.89
2023-11-30T07:50:07.705Z,100586.80
2023-11-30T07:52:38.644Z,100595.54
2023-11-30T07:55:08.772Z,100600.07
2023-11-30T07:57:37.653Z,100601.33
2023-11-30T08:00:10.307Z,100601.73
2023-11-30T08:02:39.524Z,100603.58
2023-11-30T08:05:07.939Z,100596.54
2023-11-30T08:07:36.486Z,100584.02
2023-11-30T08:10:07.055Z,100573.77
2023-11-30T08:12:35.355Z,100568.44
2023-11-30T08:15:04.731Z,100563.09
2023-11-30T08:17:32.876Z,100559.56
2023-11-30T08:20:01.165Z,100553.22
2023-11-30T08:22:29.798Z,100548.02
2023-11-30T08:24:58.267Z,100527.52
2023-11-30T08:27:27.317Z,100484.99
2023-11-30T08:29:55.467Z,100455.17
2023-11-30T08:32:23.768Z,100428.59
2023-11-30T08:34:52.509Z,100404.14
2023-11-30T08:37:20.659Z,100384.29
2023-11-30T08:39:48.974Z,100364.10
2023-11-30T08:42:17.166Z,100349.89
2023-11-30T08:44:45.316Z,100339.95
2023-11-30T08:47:13.753Z,100327.30
2023-11-30T08:49:42.026Z,100315.55
2023-11-30T08:52:10.119Z,100309.80
2023-11-30T08:54:39.208Z,100316.86
2023-11-30T08:57:09.194Z,100302.08
2023-11-30T08:59:37.376Z,100267.52
2023-11-30T09:02:07.085Z,100244.34
2023-11-30T09:04:35.539Z,100232.83
2023-11-30T09:07:03.875Z,100205.02
2023-11-30T09:09:32.136Z,100177.16
2023-11-30T09:12:00.392Z,100179.51
2023-11-30T09:14:29.090Z,100182.02
2023-11-30T09:16:57.151Z,100170.88
2023-11-30T09:19:25.601Z,100126.02
2023-11-30T09:21:54.150Z,100081.96
2023-11-30T09:24:23.734Z,100074.32
2023-11-30T09:26:52.487Z,100086.98
2023-11-30T09:29:20.738Z,100084.83
2023-11-30T09:31:48.837Z,100069.79
2023-11-30T09:34:17.087Z,100045.95
2023-11-30T09:36:45.304Z,100021.23
2023-11-30T09:39:18.606Z,100005.95
2023-11-30T09:41:46.716Z,99994.44
2023-11-30T09:44:14.816Z,99977.02
2023-11-30T09:46:43.877Z,99968.79
2023-11-30T09:49:12.220Z,99970.66
2023-11-30T09:51:42.901Z,99961.32
2023-11-30T09:54:11.367Z,99956.66
2023-11-30T09:56:39.716Z,99957.15
2023-11-30T09:59:08.305Z,99946.31
2023-11-30T10:01:36.771Z,99932.02
2023-11-30T10:04:15.913Z,99919.24
2023-11-30T10:06:44.754Z,99899.96
2023-11-30T10:09:14.503Z,99889.41
2023-11-30T10:11:43.252Z,99883.50
2023-11-30T10:14:11.608Z,99874.60
2023-11-30T10:16:40.819Z,99879.08
2023-11-30T10:19:09.352Z,99879.36
2023-11-30T10:21:39.430Z,99872.04
2023-11-30T10:24:09.503Z,99863.16
2023-11-30T10:26:38.625Z,99861.44
2023-11-30T10:29:08.150Z,99865.85
2023-11-30T10:31:36.831Z,99872.42
2023-11-30T10:34:12.295Z,99879.17
2023-11-30T10:36:41.681Z,99882.16
2023-11-30T10:39:24.361Z,99887.17
2023-11-30T10:41:54.444Z,99893.29
2023-11-30T10:44:27.340Z,99880.56
2023-11-30T10:47:05.422Z,99878.88
2023-11-30T10:49:33.841Z,99872.48
2023-11-30T10:52:04.235Z,99856.84
2023-11-30T10:54:51.136Z,99833.66
2023-11-30T10:57:20.462Z,99832.21
2023-11-30T10:59:49.508Z,99835.61
2023-11-30T11:02:18.006Z,99827.05
2023-11-30T11:04:46.258Z,99845.77
2023-11-30T11:07:14.618Z,99838.83
2023-11-30T11:09:55.598Z,99789.25
2023-11-30T11:12:28.111Z,99743.23
2023-11-30T11:15:14.676Z,99729.66
2023-11-30T11:17:51.407Z,99738.42
2023-11-30T11:20:27.865Z,99748.89
2023-11-30T11:22:57.091Z,99763.80
2023-11-30T11:25:26.595Z,99762.54
2023-11-30T11:27:56.422Z,99751.77
2023-11-30T11:30:28.381Z,99736.94
2023-11-30T11:33:00.908Z,99730.54
2023-11-30T11:35:29.346Z,99732.88
2023-11-30T11:38:01.367Z,99736.73
2023-11-30T11:40:29.617Z,99739.67
2023-11-30T11:42:58.239Z,99743.77
2023-11-30T11:45:26.700Z,99742.15
2023-11-30T11:47:55.319Z,99739.17
2023-11-30T11:50:23.976Z,99745.98
2023-11-30T11:52:52.246Z,99752.07
2023-11-30T11:55:23.888Z,99757.02
2023-11-30T11:57:53.443Z,99760.05
2023-11-30T12:00:22.338Z,99759.23
2023-11-30T12:02:51.227Z,99752.52
2023-11-30T12:05:26.907Z,99753.29
2023-11-30T12:08:01.026Z,99762.85
2023-11-30T12:10:34.562Z,99765.97
2023-11-30T12:13:03.923Z,99768.67
2023-11-30T12:15:32.416Z,99776.20
2023-11-30T12:18:02.226Z,99786.65
2023-11-30T12:20:32.404Z,99790.38
2023-11-30T12:23:01.023Z,99789.46
2023-11-30T12:25:32.553Z,99789.77
2023-11-30T12:28:00.880Z,99792.32
2023-11-30T12:30:29.299Z,99792.96
2023-11-30T12:32:57.922Z,99788.98
2023-11-30T12:35:26.279Z,99793.73
2023-11-30T12:37:54.544Z,99796.44
2023-11-30T12:40:22.869Z,99803.59
2023-11-30T12:42:51.126Z,99803.60
2023-11-30T12:45:19.954Z,99794.64
2023-11-30T12:47:48.553Z,99801.37
2023-11-30T12:50:17.014Z,99808.34
2023-11-30T12:52:45.216Z,99800.21
2023-11-30T12:55:14.920Z,99793.20
2023-11-30T12:57:44.272Z,99799.87
2023-11-30T13:00:16.353Z,99806.64
2023-11-30T13:02:48.031Z,99805.27
2023-11-30T13:05:16.533Z,99803.08
2023-11-30T13:07:44.856Z,99805.08
2023-11-30T13:10:13.256Z,99797.39
2023-11-30T13:12:42.690Z,99793.18
2023-11-30T13:15:13.741Z,99795.24
2023-11-30T13:17:42.925Z,99796.91
2023-11-30T13:20:15.060Z,99794.63
2023-11-30T13:22:47.320Z,99794.63
2023-11-30T13:25:15.988Z,99798.14
2023-11-30T13:27:48.564Z,99802.89
2023-11-30T13:30:18.472Z,99809.05
2023-11-30T13:32:48.023Z,99814.26
2023-11-30T13:35:16.860Z,99815.25
2023-11-30T13:37:45.188Z,99819.19
2023-11-30T13:40:13.528Z,99827.49
2023-11-30T13:42:41.967Z,99836.88
2023-11-30T13:45:10.630Z,99843.98
2023-11-30T13:47:43.148Z,99855.39
2023-11-30T13:50:20.776Z,99863.59
2023-11-30T13:53:00.247Z,99869.06
2023-11-30T13:55:29.161Z,99874.80
2023-11-30T13:57:57.934Z,99888.41
2023-11-30T14:00:26.376Z,99901.93
2023-11-30T14:02:55.187Z,99906.41
2023-11-30T14:05:23.899Z,99921.75
2023-11-30T14:07:52.713Z,99930.72
2023-11-30T14:10:20.907Z,99941.17
2023-11-30T14:12:49.552Z,99956.93
2023-11-30T14:15:17.909Z,99964.63
2023-11-30T14:17:46.292Z,99973.90
2023-11-30T14:20:14.834Z,99984.61
2023-11-30T14:22:43.050Z,99994.91
2023-11-30T14:25:13.654Z,100000.38
2023-11-30T14:27:42.262Z,100012.14
2023-11-30T14:30:11.477Z,100019.61
2023-11-30T14:32:40.390Z,100030.14
2023-11-30T14:35:09.249Z,100036.70
2023-11-30T14:37:37.700Z,100038.76
2023-11-30T14:40:09.912Z,100043.99
2023-11-30T14:42:38.061Z,100048.56
2023-11-30T14:45:10.156Z,100056.90
2023-11-30T14:47:41.106Z,100068.83
2023-11-30T14:50:11.828Z,100075.36
2023-11-30T14:52:45.317Z,100085.77
2023-11-30T14:55:14.640Z,100097.69
2023-11-30T14:57:44.781Z,100108.41
2023-11-30T15:00:16.526Z,100118.23
2023-11-30T15:02:45.125Z,100125.33
2023-11-30T15:05:15.756Z,100118.58
2023-11-30T15:07:44.608Z,100116.48
2023-11-30T15:10:14.335Z,100128.52
2023-11-30T15:12:43.214Z,100141.77
2023-11-30T15:15:15.535Z,100161.96
2023-11-30T15:17:45.912Z,100173.77
2023-11-30T15:20:14.695Z,100175.61
2023-11-30T15:22:43.226Z,100185.27
2023-11-30T15:25:18.968Z,100188.64
2023-11-30T15:27:49.554Z,100195.37
2023-11-30T15:30:18.882Z,100216.79
2023-11-30T15:32:47.483Z,100233.48
2023-11-30T15:35:16.650Z,100246.58
2023-11-30T15:37:50.374Z,100252.83
2023-11-30T15:40:21.786Z,100262.75
2023-11-30T15:42:52.061Z,100272.21
2023-11-30T15:45:23.764Z,100274.41
2023-11-30T15:47:52.555Z,100273.44
2023-11-30T15:50:21.194Z,100275.52
2023-11-30T15:53:05.865Z,100259.14
2023-11-30T15:55:34.091Z,100282.58
2023-11-30T15:58:02.563Z,100303.67
2023-11-30T16:00:30.859Z,100325.75
2023-11-30T16:02:59.233Z,100341.48
2023-11-30T16:05:29.690Z,100354.64
2023-11-30T16:07:59.307Z,100364.49
2023-11-30T16:10:27.749Z,100382.30
2023-11-30T16:12:56.245Z,100390.59
2023-11-30T16:15:25.797Z,100400.03
2023-11-30T16:17:54.492Z,100411.98
2023-11-30T16:20:22.732Z,100413.46
2023-11-30T16:22:51.177Z,100418.83
2023-11-30T16:25:19.622Z,100428.91
2023-11-30T16:27:47.962Z,100446.99
2023-11-30T16:30:16.345Z,100461.29
2023-11-30T16:32:45.798Z,100593.35
2023-11-30T16:35:14.858Z,100706.56
2023-11-30T16:37:43.169Z,100732.52
2023-11-30T16:40:12.395Z,100758.95
2023-11-30T16:42:41.040Z,100776.89
2023-11-30T16:45:10.093Z,100803.80
2023-11-30T16:47:39.610Z,100807.96
2023-11-30T16:50:10.283Z,100826.26
2023-11-30T16:52:38.733Z,100768.27
2023-11-30T16:55:07.539Z,100792.17
2023-11-30T16:57:37.410Z,100773.48
2023-11-30T17:00:08.345Z,100769.25
2023-11-30T17:02:36.634Z,100765.99
2023-11-30T17:05:05.745Z,100767.14
2023-11-30T17:07:34.102Z,100752.36
2023-11-30T17:10:03.866Z,100750.06
2023-11-30T17:12:32.634Z,100744.29
2023-11-30T17:15:01.249Z,100738.53
2023-11-30T17:17:29.806Z,100763.25
2023-11-30T17:19:58.164Z,100781.28
2023-11-30T17:22:26.604Z,100775.11
2023-11-30T17:24:55.102Z,100774.85
2023-11-30T17:27:23.751Z,100771.84
2023-11-30T17:29:52.154Z,100765.40
2023-11-30T17:32:20.634Z,100746.78
2023-11-30T17:34:49.093Z,100725.82
2023-11-30T17:37:17.457Z,100720.57
2023-11-30T17:39:47.364Z,100712.55
2023-11-30T17:42:15.928Z,100699.38
2023-11-30T17:44:44.448Z,100684.42
2023-11-30T17:47:12.962Z,100677.75
2023-11-30T17:49:41.553Z,100673.23
2023-11-30T17:52:10.014Z,100650.04
2023-11-30T17:54:38.703Z,100638.13
2023-11-30T17:57:07.033Z,100621.25
2023-11-30T17:59:35.472Z,100607.10
2023-11-30T18:02:04.364Z,100598.16
2023-11-30T18:04:33.118Z,100594.33
2023-11-30T18:07:02.689Z,100580.67
2023-11-30T18:09:31.339Z,100559.88
2023-11-30T18:11:59.593Z,100549.48
2023-11-30T18:14:32.831Z,100536.70
2023-11-30T18:17:02.347Z,100521.87
2023-11-30T18:19:31.138Z,100515.77
2023-11-30T18:21:59.761Z,100503.85
2023-11-30T18:24:31.824Z,100490.73
2023-11-30T18:27:01.261Z,100478.08
2023-11-30T18:29:31.355Z,100472.42
2023-11-30T18:31:59.936Z,100465.82
2023-11-30T18:34:28.924Z,100469.23
2023-11-30T18:36:57.902Z,100468.92
2023-11-30T18:39:26.533Z,100464.27
2023-11-30T18:41:56.416Z,100470.91
2023-11-30T18:44:24.944Z,100471.40
2023-11-30T18:46:53.495Z,100480.15
2023-11-30T18:49:22.088Z,100484.08
2023-11-30T18:51:50.399Z,100482.52
2023-11-30T18:54:21.803Z,100487.25
2023-11-30T18:56:50.556Z,100493.76
2023-11-30T18:59:18.961Z,100496.13
2023-11-30T19:01:48.927Z,100492.89
2023-11-30T19:04:17.506Z,100484.70
2023-11-30T19:06:45.997Z,100480.92
2023-11-30T19:09:14.582Z,100485.41
2023-11-30T19:11:45.822Z,100480.57
2023-11-30T19:14:14.182Z,100473.58
2023-11-30T19:16:42.777Z,100477.16
2023-11-30T19:19:11.588Z,100481.95
2023-11-30T19:21:43.807Z,100480.03
2023-11-30T19:24:13.744Z,100476.23
2023-11-30T19:26:44.060Z,100471.22
2023-11-30T19:29:14.401Z,100473.25
2023-11-30T19:31:43.007Z,100470.20
2023-11-30T19:34:13.425Z,100467.83
2023-11-30T19:36:42.528Z,100462.19
2023-11-30T19:39:11.051Z,100458.79
2023-11-30T19:41:46.643Z,100456.84
2023-11-30T19:44:17.449Z,100439.40
2023-11-30T19:46:49.728Z,100429.64
2023-11-30T19:49:18.179Z,100427.11
2023-11-30T19:51:46.487Z,100424.25
2023-11-30T19:54:14.865Z,100417.54
2023-11-30T19:56:43.601Z,100410.13
2023-11-30T19:59:12.162Z,100402.02
2023-11-30T20:01:40.713Z,100392.66
2023-11-30T20:04:09.398Z,100379.55
2023-11-30T20:06:37.984Z,100373.89
2023-11-30T20:09:06.524Z,100369.42
2023-11-30T20:11:35.052Z,100351.07
2023-11-30T20:14:03.550Z,100346.27
2023-11-30T20:16:32.146Z,100342.42
2023-11-30T20:19:01.504Z,100337.30
2023-11-30T20:21:29.987Z,100332.60
2023-11-30T20:23:58.327Z,100328.86
2023-11-30T20:26:26.950Z,100321.88
2023-11-30T20:28:55.335Z,100315.33
2023-11-30T20:31:23.590Z,100317.73
2023-11-30T20:33:52.927Z,100311.65
2023-11-30T20:36:21.577Z,100306.90
2023-11-30T20:38:50.230Z,100301.77
2023-11-30T20:41:18.776Z,100300.54
2023-11-30T20:43:50.375Z,100304.61
2023-11-30T20:46:20.902Z,100293.20
2023-11-30T20:48:50.224Z,100280.69
2023-11-30T20:51:19.668Z,100271.64
2023-11-30T20:53:48.096Z,100265.63
2023-11-30T20:56:16.498Z,100264.80
2023-11-30T20:58:46.989Z,100259.09
2023-11-30T21:01:16.020Z,100253.15
2023-11-30T21:03:51.336Z,100249.76
2023-11-30T21:06:19.611Z,100251.40
2023-11-30T21:08:47.946Z,100252.20
2023-11-30T21:11:16.375Z,100253.33
2023-11-30T21:13:44.863Z,100254.95
2023-11-30T21:16:18.736Z,100250.68
2023-11-30T21:18:48.083Z,100243.91
2023-11-30T21:21:17.935Z,100242.39
2023-11-30T21:23:46.463Z,100245.00
2023-11-30T21:26:14.745Z,100251.84
2023-11-30T21:28:43.167Z,100242.00
2023-11-30T21:31:11.713Z,100237.58
2023-11-30T21:33:40.151Z,100234.31
2023-11-30T21:36:13.670Z,100236.55
2023-11-30T21:38:42.360Z,100239.13
2023-11-30T21:41:14.996Z,100235.42
2023-11-30T21:43:44.193Z,100228.56
2023-11-30T21:46:12.795Z,100221.54
2023-11-30T21:48:41.553Z,100219.41
2023-11-30T21:51:10.089Z,100216.17
2023-11-30T21:53:38.284Z,100213.77
2023-11-30T21:56:07.527Z,100200.19
2023-11-30T21:58:36.055Z,100180.96
2023-11-30T22:01:06.187Z,100178.05
2023-11-30T22:03:35.024Z,100180.21
2023-11-30T22:06:03.486Z,100174.73
2023-11-30T22:08:31.822Z,100176.75
2023-11-30T22:11:00.196Z,100178.98
2023-11-30T22:13:28.668Z,100178.96
2023-11-30T22:16:03.491Z,100162.30
2023-11-30T22:18:35.277Z,100156.86
2023-11-30T22:21:04.373Z,100151.05
2023-11-30T22:23:33.913Z,100148.48
2023-11-30T22:26:04.471Z,100136.55
2023-11-30T22:28:33.339Z,100139.73
2023-11-30T22:31:01.877Z,100129.14
2023-11-30T22:33:30.467Z,100121.40
2023-11-30T22:35:58.781Z,100126.07
2023-11-30T22:38:31.017Z,100121.98
2023-11-30T22:41:01.217Z,100120.33
2023-11-30T22:43:29.700Z,100121.81
2023-11-30T22:45:58.205Z,100114.42
2023-11-30T22:48:26.586Z,100117.80
2023-11-30T22:50:54.882Z,100125.75
2023-11-30T22:53:23.415Z,100125.49
2023-11-30T22:55:52.017Z,100128.53
2023-11-30T22:58:20.571Z,100134.19
2023-11-30T23:00:49.418Z,100140.33
2023-11-30T23:03:18.289Z,100147.77
2023-11-30T23:05:46.812Z,100166.70
2023-11-30T23:08:15.116Z,100180.23
2023-11-30T23:10:43.612Z,100174.74
2023-11-30T23:13:12.027Z,100181.65
2023-11-30T23:15:40.470Z,100191.63
2023-11-30T23:18:09.259Z,100205.70
2023-11-30T23:20:37.699Z,100221.96
2023-11-30T23:23:05.978Z,100223.22
2023-11-30T23:25:34.181Z,100228.44
2023-11-30T23:28:02.585Z,100231.75
2023-11-30T23:30:31.980Z,100235.39
2023-11-30T23:33:00.493Z,100240.92
2023-11-30T23:35:28.836Z,100248.07
2023-11-30T23:37:57.125Z,100255.38
2023-11-30T23:40:25.716Z,100252.88
2023-11-30T23:42:54.196Z,100257.07
2023-11-30T23:45:22.541Z,100256.33
2023-11-30T23:47:51.030Z,100253.56
2023-11-30T23:50:19.458Z,100253.59
2023-11-30T23:52:47.709Z,100256.17
2023-11-30T23:55:16.191Z,100253.93
2023-11-30T23:57:44.603Z,100239.02
